createdAt,value
2022-07-26T00:01:40.021Z,22.24
2022-07-26T00:04:09.321Z,22.17
2022-07-26T00:06:41.248Z,22.31
2022-07-26T00:09:10.977Z,22.41
2022-07-26T00:11:42.053Z,22.31
2022-07-26T00:14:11.333Z,22.18
2022-07-26T00:16:41.530Z,22.35
2022-07-26T00:19:11.285Z,22.23
2022-07-26T00:21:41.708Z,22.19
2022-07-26T00:24:11.134Z,22.16
2022-07-26T00:26:41.808Z,22.09
2022-07-26T00:29:11.931Z,21.93
2022-07-26T00:31:41.568Z,21.95
2022-07-26T00:34:10.774Z,21.97
2022-07-26T00:36:41.106Z,21.98
2022-07-26T00:39:11.576Z,22.06
2022-07-26T00:41:42.658Z,22.10
2022-07-26T00:44:12.734Z,21.98
2022-07-26T00:46:43.856Z,21.96
2022-07-26T00:49:13.804Z,21.89
2022-07-26T00:51:45.685Z,21.94
2022-07-26T00:54:18.298Z,21.95
2022-07-26T00:56:53.370Z,21.87
2022-07-26T00:59:24.555Z,22.01
2022-07-26T01:01:54.258Z,21.97
2022-07-26T01:04:23.913Z,22.06
2022-07-26T01:06:53.442Z,22.03
2022-07-26T01:09:22.623Z,22.06
2022-07-26T01:11:53.395Z,22.00
2022-07-26T01:14:22.971Z,21.98
2022-07-26T01:16:55.423Z,21.93
2022-07-26T01:19:24.800Z,21.98
2022-07-26T01:21:55.626Z,21.94
2022-07-26T01:24:24.895Z,21.93
2022-07-26T01:26:55.629Z,21.93
2022-07-26T01:29:34.725Z,21.85
2022-07-26T01:32:06.719Z,21.83
2022-07-26T01:34:36.065Z,21.78
2022-07-26T01:37:07.258Z,21.98
2022-07-26T01:39:36.996Z,21.99
2022-07-26T01:42:06.729Z,22.10
2022-07-26T01:44:36.036Z,21.96
2022-07-26T01:47:05.413Z,21.97
2022-07-26T01:49:34.838Z,21.99
2022-07-26T01:52:04.118Z,21.99
2022-07-26T01:54:34.817Z,22.09
2022-07-26T01:57:04.079Z,22.00
2022-07-26T01:59:33.340Z,21.91
2022-07-26T02:02:02.724Z,22.14
2022-07-26T02:04:49.399Z,22.31
2022-07-26T02:07:18.742Z,22.27
2022-07-26T02:09:49.949Z,22.15
2022-07-26T02:12:19.301Z,22.05
2022-07-26T02:14:48.546Z,22.06
2022-07-26T02:17:18.208Z,22.10
2022-07-26T02:19:47.523Z,22.16
2022-07-26T02:22:16.766Z,22.21
2022-07-26T02:24:45.979Z,22.26
2022-07-26T02:27:17.711Z,22.28
2022-07-26T02:29:47.285Z,22.26
2022-07-26T02:32:16.656Z,22.21
2022-07-26T02:34:45.964Z,22.25
2022-07-26T02:37:15.313Z,22.18
2022-07-26T02:39:44.666Z,22.22
2022-07-26T02:42:13.855Z,22.21
2022-07-26T02:44:44.526Z,22.17
2022-07-26T02:47:13.778Z,22.18
2022-07-26T02:49:43.110Z,22.34
2022-07-26T02:52:12.384Z,22.45
2022-07-26T02:54:41.514Z,22.30
2022-07-26T02:57:25.964Z,22.29
2022-07-26T02:59:56.538Z,22.24
2022-07-26T03:02:25.838Z,22.18
2022-07-26T03:04:55.142Z,22.17
2022-07-26T03:07:24.424Z,22.20
2022-07-26T03:09:53.720Z,22.51
2022-07-26T03:12:22.872Z,22.84
2022-07-26T03:14:52.213Z,22.84
2022-07-26T03:17:22.874Z,22.85
2022-07-26T03:19:53.362Z,22.73
2022-07-26T03:22:22.875Z,22.55
2022-07-26T03:24:53.690Z,22.41
2022-07-26T03:27:23.306Z,22.30
2022-07-26T03:29:52.642Z,22.31
2022-07-26T03:32:23.560Z,22.10
2022-07-26T03:34:53.308Z,22.04
2022-07-26T03:37:23.285Z,22.04
2022-07-26T03:39:52.559Z,22.06
2022-07-26T03:42:21.886Z,22.09
2022-07-26T03:44:51.211Z,22.09
2022-07-26T03:47:20.905Z,22.12
2022-07-26T03:49:51.534Z,22.10
2022-07-26T03:52:21.253Z,22.08
2022-07-26T03:54:50.544Z,22.12
2022-07-26T03:57:18.758Z,22.01
2022-07-26T03:59:48.146Z,22.07
2022-07-26T04:02:18.869Z,22.05
2022-07-26T04:04:48.278Z,22.39
2022-07-26T04:07:18.819Z,22.14
2022-07-26T04:09:48.585Z,22.13
2022-07-26T04:12:17.771Z,22.18
2022-07-26T04:14:47.070Z,22.25
2022-07-26T04:17:16.334Z,22.28
2022-07-26T04:19:45.707Z,22.31
2022-07-26T04:22:14.897Z,22.35
2022-07-26T04:24:45.533Z,22.44
2022-07-26T04:27:14.771Z,22.51
2022-07-26T04:29:44.002Z,22.69
2022-07-26T04:32:13.198Z,22.81
2022-07-26T04:34:42.393Z,22.96
2022-07-26T04:37:11.578Z,22.96
2022-07-26T04:39:40.779Z,23.03
2022-07-26T04:42:11.751Z,23.15
2022-07-26T04:44:41.019Z,23.23
2022-07-26T04:47:10.212Z,23.30
2022-07-26T04:49:39.546Z,23.45
2022-07-26T04:52:08.823Z,23.57
2022-07-26T04:54:38.138Z,23.64
2022-07-26T04:57:07.508Z,23.74
2022-07-26T04:59:38.339Z,23.92
2022-07-26T05:02:07.637Z,23.74
2022-07-26T05:04:36.933Z,23.61
2022-07-26T05:07:06.134Z,23.60
2022-07-26T05:09:35.653Z,23.47
2022-07-26T05:12:06.066Z,23.45
2022-07-26T05:14:35.270Z,23.46
2022-07-26T05:17:08.930Z,23.28
2022-07-26T05:19:39.690Z,23.21
2022-07-26T05:22:08.991Z,23.24
2022-07-26T05:24:38.105Z,23.51
2022-07-26T05:27:07.399Z,23.46
2022-07-26T05:29:36.609Z,23.47
2022-07-26T05:32:08.229Z,23.67
2022-07-26T05:34:37.559Z,23.88
2022-07-26T05:37:06.726Z,23.94
2022-07-26T05:39:36.022Z,23.98
2022-07-26T05:42:05.263Z,23.92
2022-07-26T05:44:34.573Z,24.03
2022-07-26T05:47:04.060Z,24.02
2022-07-26T05:49:40.053Z,23.88
2022-07-26T05:52:10.358Z,23.71
2022-07-26T05:54:39.665Z,23.84
2022-07-26T05:57:08.854Z,23.82
2022-07-26T05:59:38.096Z,23.85
2022-07-26T06:02:08.474Z,23.73
2022-07-26T06:04:39.653Z,23.88
2022-07-26T06:07:08.942Z,23.70
2022-07-26T06:09:38.419Z,23.59
2022-07-26T06:12:08.437Z,23.41
2022-07-26T06:14:37.685Z,23.34
2022-07-26T06:17:07.091Z,23.34
2022-07-26T06:19:38.159Z,23.32
2022-07-26T06:22:07.457Z,23.32
2022-07-26T06:24:36.680Z,23.53
2022-07-26T06:27:06.166Z,23.51
2022-07-26T06:29:37.879Z,23.49
2022-07-26T06:32:08.832Z,23.46
2022-07-26T06:34:39.483Z,23.47
2022-07-26T06:37:08.765Z,23.31
2022-07-26T06:39:38.205Z,23.26
2022-07-26T06:42:07.684Z,23.22
2022-07-26T06:44:39.534Z,23.46
2022-07-26T06:47:08.725Z,23.43
2022-07-26T06:49:39.311Z,23.27
2022-07-26T06:52:08.617Z,23.58
2022-07-26T06:54:38.885Z,23.71
2022-07-26T06:57:08.093Z,23.87
2022-07-26T06:59:37.457Z,23.93
2022-07-26T07:02:07.117Z,24.00
2022-07-26T07:04:38.336Z,24.09
2022-07-26T07:07:08.499Z,24.13
2022-07-26T07:09:38.802Z,24.18
2022-07-26T07:12:10.606Z,24.03
2022-07-26T07:14:40.914Z,23.88
2022-07-26T07:17:13.188Z,23.71
2022-07-26T07:19:44.685Z,23.47
2022-07-26T07:22:13.913Z,23.38
2022-07-26T07:24:44.394Z,23.28
2022-07-26T07:27:16.049Z,23.29
2022-07-26T07:29:46.285Z,23.43
2022-07-26T07:32:18.427Z,23.48
2022-07-26T07:34:50.735Z,23.61
2022-07-26T07:37:21.462Z,23.68
2022-07-26T07:39:52.857Z,23.74
2022-07-26T07:42:23.436Z,23.99
2022-07-26T07:44:52.726Z,24.17
2022-07-26T07:47:22.329Z,24.38
2022-07-26T07:49:53.056Z,24.63
2022-07-26T07:52:22.443Z,24.52
2022-07-26T07:54:51.909Z,24.55
2022-07-26T07:57:21.608Z,24.33
2022-07-26T07:59:53.567Z,24.00
2022-07-26T08:02:23.027Z,23.65
2022-07-26T08:04:54.224Z,23.66
2022-07-26T08:07:23.671Z,23.51
2022-07-26T08:10:02.759Z,23.72
2022-07-26T08:12:32.273Z,23.84
2022-07-26T08:15:02.613Z,23.98
2022-07-26T08:17:38.056Z,24.04
2022-07-26T08:20:15.956Z,24.19
2022-07-26T08:22:45.490Z,24.29
2022-07-26T08:25:14.959Z,24.33
2022-07-26T08:28:00.509Z,24.40
2022-07-26T08:30:35.436Z,24.45
2022-07-26T08:33:05.573Z,24.60
2022-07-26T08:35:41.809Z,24.80
2022-07-26T08:38:13.512Z,24.91
2022-07-26T08:40:47.652Z,25.10
2022-07-26T08:43:17.938Z,25.36
2022-07-26T08:45:48.257Z,25.46
2022-07-26T08:48:19.742Z,25.56
2022-07-26T08:50:50.861Z,25.66
2022-07-26T08:53:20.717Z,25.76
2022-07-26T08:56:06.326Z,25.79
2022-07-26T08:58:37.389Z,25.77
2022-07-26T09:01:09.163Z,25.79
2022-07-26T09:03:38.866Z,25.79
2022-07-26T09:06:18.092Z,25.78
2022-07-26T09:08:50.061Z,25.76
2022-07-26T09:11:33.653Z,25.73
2022-07-26T09:14:05.253Z,25.78
2022-07-26T09:16:39.221Z,25.86
2022-07-26T09:19:22.809Z,25.98
2022-07-26T09:21:55.642Z,26.07
2022-07-26T09:24:37.679Z,26.14
2022-07-26T09:27:11.880Z,26.18
2022-07-26T09:29:57.446Z,26.23
2022-07-26T09:32:28.484Z,26.15
2022-07-26T09:35:44.173Z,26.12
2022-07-26T09:38:17.679Z,26.15
2022-07-26T09:41:23.666Z,26.13
2022-07-26T09:43:54.161Z,25.98
2022-07-26T09:46:26.450Z,26.08
2022-07-26T09:49:12.626Z,26.30
2022-07-26T09:51:44.111Z,26.54
2022-07-26T09:54:22.096Z,26.71
2022-07-26T09:56:53.767Z,26.88
2022-07-26T09:59:25.689Z,26.91
2022-07-26T10:02:00.765Z,26.99
2022-07-26T10:04:30.416Z,26.94
2022-07-26T10:07:02.048Z,27.04
2022-07-26T10:09:41.635Z,27.04
2022-07-26T10:12:30.973Z,27.05
2022-07-26T10:15:01.195Z,27.04
2022-07-26T10:17:49.391Z,26.82
2022-07-26T10:20:44.044Z,26.41
2022-07-26T10:23:44.088Z,26.85
2022-07-26T10:26:43.085Z,27.21
2022-07-26T10:29:30.530Z,27.20
2022-07-26T10:32:20.734Z,27.42
2022-07-26T10:34:50.274Z,27.37
2022-07-26T10:37:28.221Z,27.42
2022-07-26T10:40:22.589Z,27.61
2022-07-26T10:42:55.938Z,27.74
2022-07-26T10:45:25.640Z,28.10
2022-07-26T10:48:17.260Z,28.46
2022-07-26T10:50:48.896Z,28.55
2022-07-26T10:53:22.312Z,28.27
2022-07-26T10:55:57.135Z,28.45
2022-07-26T10:58:30.711Z,28.75
2022-07-26T11:01:02.535Z,28.98
2022-07-26T11:03:45.132Z,28.98
2022-07-26T11:06:19.825Z,29.14
2022-07-26T11:08:49.910Z,29.18
2022-07-26T11:11:31.008Z,29.28
2022-07-26T11:14:15.072Z,29.43
2022-07-26T11:16:48.342Z,29.63
2022-07-26T11:19:20.669Z,29.68
2022-07-26T11:21:57.302Z,29.73
2022-07-26T11:24:29.719Z,29.98
2022-07-26T11:27:06.260Z,29.91
2022-07-26T11:29:41.091Z,29.89
2022-07-26T11:32:20.433Z,29.93
2022-07-26T11:35:00.564Z,29.64
2022-07-26T11:37:30.172Z,29.67
2022-07-26T11:39:59.479Z,29.88
2022-07-26T11:42:28.682Z,30.20
2022-07-26T11:44:59.905Z,30.09
2022-07-26T11:47:29.292Z,30.39
2022-07-26T11:50:22.122Z,30.32
2022-07-26T11:52:52.321Z,29.97
2022-07-26T11:55:28.773Z,30.28
2022-07-26T11:58:05.057Z,30.83
2022-07-26T12:00:37.223Z,31.32
2022-07-26T12:03:06.591Z,31.56
2022-07-26T12:05:37.124Z,31.89
2022-07-26T12:08:08.631Z,32.34
2022-07-26T12:10:38.809Z,33.24
2022-07-26T12:13:11.178Z,33.14
2022-07-26T12:15:51.356Z,33.26
2022-07-26T12:18:26.469Z,32.80
2022-07-26T12:21:07.172Z,32.02
2022-07-26T12:23:46.816Z,32.25
2022-07-26T12:26:26.545Z,32.56
2022-07-26T12:29:27.677Z,33.22
2022-07-26T12:32:12.488Z,33.85
2022-07-26T12:34:55.337Z,33.84
2022-07-26T12:37:32.586Z,33.32
2022-07-26T12:40:12.315Z,34.48
2022-07-26T12:42:44.379Z,35.28
2022-07-26T12:45:17.252Z,36.04
2022-07-26T12:47:51.976Z,36.53
2022-07-26T12:50:25.607Z,37.10
2022-07-26T12:53:02.886Z,37.62
2022-07-26T12:55:34.981Z,38.14
2022-07-26T12:58:05.559Z,38.89
2022-07-26T13:00:35.085Z,39.40
2022-07-26T13:03:08.398Z,39.65
2022-07-26T13:05:38.621Z,39.81
2022-07-26T13:08:07.877Z,40.04
2022-07-26T13:10:37.438Z,39.99
2022-07-26T13:13:08.122Z,39.61
2022-07-26T13:15:38.117Z,38.96
2022-07-26T13:18:10.382Z,38.99
2022-07-26T13:20:39.907Z,38.71
2022-07-26T13:23:13.880Z,38.24
2022-07-26T13:25:45.430Z,39.09
2022-07-26T13:28:15.850Z,40.23
2022-07-26T13:30:45.535Z,40.92
2022-07-26T13:33:18.014Z,41.68
2022-07-26T13:35:50.364Z,42.22
2022-07-26T13:38:20.786Z,42.97
2022-07-26T13:40:50.807Z,43.39
2022-07-26T13:43:19.996Z,43.85
2022-07-26T13:45:50.285Z,44.90
2022-07-26T13:48:21.180Z,45.28
2022-07-26T13:50:51.021Z,42.90
2022-07-26T13:53:20.235Z,42.87
2022-07-26T13:55:49.811Z,41.46
2022-07-26T13:58:22.905Z,39.70
2022-07-26T14:00:53.272Z,40.10
2022-07-26T14:03:24.153Z,39.67
2022-07-26T14:05:53.762Z,43.02
2022-07-26T14:08:23.264Z,44.92
2022-07-26T14:10:53.164Z,45.22
2022-07-26T14:13:22.400Z,44.88
2022-07-26T14:15:54.079Z,46.24
2022-07-26T14:18:24.826Z,46.86
2022-07-26T14:20:55.277Z,46.90
2022-07-26T14:23:24.606Z,45.56
2022-07-26T14:25:54.663Z,45.68
2022-07-26T14:28:24.227Z,44.39
2022-07-26T14:30:53.518Z,45.47
2022-07-26T14:33:24.102Z,46.72
2022-07-26T14:35:53.459Z,44.70
2022-07-26T14:38:28.144Z,42.21
2022-07-26T14:41:01.169Z,41.08
2022-07-26T14:43:30.479Z,39.93
2022-07-26T14:45:59.909Z,41.40
2022-07-26T14:48:52.981Z,43.30
2022-07-26T14:51:20.118Z,41.18
2022-07-26T14:53:55.473Z,41.91
2022-07-26T14:56:24.743Z,40.44
2022-07-26T14:58:54.232Z,38.77
2022-07-26T15:01:23.487Z,39.07
2022-07-26T15:03:54.167Z,38.45
2022-07-26T15:06:23.520Z,36.81
2022-07-26T15:08:52.674Z,35.92
2022-07-26T15:11:21.972Z,34.71
2022-07-26T15:13:51.277Z,36.27
2022-07-26T15:16:21.453Z,39.88
2022-07-26T15:18:50.686Z,43.96
2022-07-26T15:21:21.597Z,45.97
2022-07-26T15:23:50.843Z,46.62
2022-07-26T15:26:20.275Z,47.20
2022-07-26T15:28:49.815Z,47.17
2022-07-26T15:31:19.461Z,43.88
2022-07-26T15:33:48.936Z,39.49
2022-07-26T15:36:20.440Z,36.66
2022-07-26T15:38:51.250Z,34.84
2022-07-26T15:41:20.907Z,33.89
2022-07-26T15:43:50.502Z,34.04
2022-07-26T15:46:19.761Z,33.63
2022-07-26T15:48:51.194Z,32.79
2022-07-26T15:58:56.739Z,30.42
2022-07-26T16:01:38.309Z,30.12
2022-07-26T16:04:12.406Z,29.97
2022-07-26T16:07:18.098Z,29.87
2022-07-26T16:09:51.164Z,29.85
2022-07-26T16:12:24.095Z,29.88
2022-07-26T16:14:54.746Z,29.86
2022-07-26T16:17:24.161Z,29.38
2022-07-26T16:19:53.672Z,29.25
2022-07-26T16:22:23.368Z,29.02
2022-07-26T16:24:52.796Z,28.78
2022-07-26T16:27:22.030Z,28.31
2022-07-26T16:29:52.503Z,27.77
2022-07-26T16:32:25.911Z,27.46
2022-07-26T16:34:55.183Z,27.14
2022-07-26T16:37:24.461Z,26.80
2022-07-26T16:39:55.817Z,26.48
2022-07-26T16:42:27.750Z,26.30
2022-07-26T16:44:57.007Z,26.03
2022-07-26T16:47:27.645Z,25.79
2022-07-26T16:49:56.999Z,25.59
2022-07-26T16:52:26.161Z,25.42
2022-07-26T16:54:55.318Z,25.18
2022-07-26T16:57:24.510Z,24.92
2022-07-26T16:59:53.751Z,24.35
2022-07-26T17:02:23.034Z,23.69
2022-07-26T17:04:55.866Z,23.39
2022-07-26T17:07:26.266Z,23.25
2022-07-26T17:09:56.426Z,23.19
2022-07-26T17:12:26.345Z,23.15
2022-07-26T17:14:55.628Z,23.53
2022-07-26T17:17:24.985Z,24.02
2022-07-26T17:19:56.242Z,23.83
2022-07-26T17:22:25.468Z,23.51
2022-07-26T17:24:54.689Z,23.27
2022-07-26T17:27:23.874Z,23.11
2022-07-26T17:29:53.228Z,23.05
2022-07-26T17:32:22.377Z,23.04
2022-07-26T17:34:52.962Z,22.91
2022-07-26T17:37:27.817Z,22.81
2022-07-26T17:39:57.836Z,22.72
2022-07-26T17:42:27.440Z,22.73
2022-07-26T17:44:56.645Z,22.72
2022-07-26T17:47:27.924Z,22.54
2022-07-26T17:50:26.196Z,22.43
2022-07-26T17:52:53.313Z,22.28
2022-07-26T17:55:23.043Z,22.22
2022-07-26T17:57:52.983Z,22.09
2022-07-26T18:00:26.969Z,21.85
2022-07-26T18:02:58.979Z,21.62
2022-07-26T18:05:34.949Z,21.53
2022-07-26T18:08:08.221Z,21.30
2022-07-26T18:10:37.438Z,21.36
2022-07-26T18:13:06.966Z,21.42
2022-07-26T18:15:38.646Z,21.32
2022-07-26T18:18:11.193Z,20.89
2022-07-26T18:20:40.580Z,20.73
2022-07-26T18:23:11.390Z,20.75
2022-07-26T18:25:40.649Z,20.79
2022-07-26T18:28:10.635Z,20.82
2022-07-26T18:30:40.122Z,20.81
2022-07-26T18:33:12.113Z,20.79
2022-07-26T18:35:41.806Z,20.80
2022-07-26T18:38:12.671Z,20.47
2022-07-26T18:40:42.250Z,20.59
2022-07-26T18:43:11.665Z,20.37
2022-07-26T18:45:40.993Z,20.08
2022-07-26T18:48:10.175Z,19.85
2022-07-26T18:50:40.930Z,19.92
2022-07-26T18:53:16.221Z,19.94
2022-07-26T18:55:45.608Z,19.87
2022-07-26T18:58:15.063Z,19.97
2022-07-26T19:00:46.760Z,19.84
2022-07-26T19:03:16.752Z,19.88
2022-07-26T19:05:48.440Z,19.71
2022-07-26T19:08:19.545Z,19.67
2022-07-26T19:10:51.502Z,19.61
2022-07-26T19:13:20.740Z,19.59
2022-07-26T19:15:49.986Z,19.52
2022-07-26T19:18:19.635Z,19.59
2022-07-26T19:20:49.469Z,19.68
2022-07-26T19:23:21.779Z,19.81
2022-07-26T19:25:51.113Z,19.72
2022-07-26T19:28:20.329Z,19.62
2022-07-26T19:30:49.613Z,19.47
2022-07-26T19:33:19.714Z,19.30
2022-07-26T19:35:50.435Z,19.26
2022-07-26T19:38:29.852Z,19.39
2022-07-26T19:40:59.079Z,19.52
2022-07-26T19:43:28.993Z,19.68
2022-07-26T19:45:59.722Z,19.63
2022-07-26T19:48:29.137Z,19.74
2022-07-26T19:50:58.728Z,19.70
2022-07-26T19:53:29.307Z,19.86
2022-07-26T19:55:58.781Z,19.66
2022-07-26T19:58:29.237Z,19.65
2022-07-26T20:00:58.955Z,19.53
2022-07-26T20:03:29.204Z,19.39
2022-07-26T20:05:59.837Z,19.42
2022-07-26T20:08:31.703Z,19.42
2022-07-26T20:11:01.396Z,19.31
2022-07-26T20:13:33.016Z,19.18
2022-07-26T20:16:05.722Z,19.24
2022-07-26T20:18:35.616Z,19.06
2022-07-26T20:21:05.374Z,18.97
2022-07-26T20:24:38.880Z,19.01
2022-07-26T20:27:10.140Z,18.99
2022-07-26T20:30:01.218Z,18.84
2022-07-26T20:32:31.082Z,19.05
2022-07-26T20:35:01.131Z,19.02
2022-07-26T20:37:30.656Z,18.96
2022-07-26T20:40:22.291Z,18.85
2022-07-26T20:43:09.496Z,18.70
2022-07-26T20:45:38.818Z,18.69
2022-07-26T20:48:09.115Z,18.72
2022-07-26T20:50:39.905Z,18.57
2022-07-26T20:53:12.708Z,18.41
2022-07-26T20:55:42.113Z,18.41
2022-07-26T20:58:14.951Z,18.30
2022-07-26T21:00:44.258Z,18.22
2022-07-26T21:03:16.861Z,18.08
2022-07-26T21:05:47.825Z,18.31
2022-07-26T21:08:18.141Z,18.39
2022-07-26T21:10:47.727Z,18.43
2022-07-26T21:13:20.101Z,18.44
2022-07-26T21:15:53.333Z,18.42
2022-07-26T21:18:24.198Z,18.29
2022-07-26T21:20:54.598Z,18.20
2022-07-26T21:27:39.466Z,18.05
2022-07-26T21:30:11.871Z,18.32
2022-07-26T21:32:41.146Z,18.45
2022-07-26T21:35:11.055Z,18.35
2022-07-26T21:37:42.655Z,18.10
2022-07-26T21:40:15.823Z,17.94
2022-07-26T21:42:45.049Z,17.94
2022-07-26T21:45:16.055Z,17.92
2022-07-26T21:47:45.467Z,17.99
2022-07-26T21:50:14.914Z,17.98
2022-07-26T21:52:44.097Z,18.10
2022-07-26T21:55:17.824Z,18.20
2022-07-26T21:57:47.712Z,18.20
2022-07-26T22:00:19.340Z,18.14
2022-07-26T22:02:48.857Z,18.00
2022-07-26T22:05:38.259Z,17.77
2022-07-26T22:08:09.939Z,17.80
2022-07-26T22:10:44.686Z,17.96
2022-07-26T22:13:15.565Z,17.96
2022-07-26T22:15:47.124Z,17.93
2022-07-26T22:18:22.055Z,17.87
2022-07-26T22:20:51.417Z,17.79
2022-07-26T22:23:20.978Z,17.79
2022-07-26T22:25:50.772Z,17.67
2022-07-26T22:28:20.059Z,17.76
2022-07-26T22:30:50.819Z,17.83
2022-07-26T22:33:20.896Z,17.71
2022-07-26T22:35:50.372Z,17.69
2022-07-26T22:38:19.819Z,17.75
2022-07-26T22:40:49.222Z,17.66
2022-07-26T22:43:19.498Z,17.70
2022-07-26T22:45:51.821Z,17.84
2022-07-26T22:48:21.130Z,17.81
2022-07-26T22:50:50.533Z,17.88
2022-07-26T22:53:20.978Z,17.81
2022-07-26T22:55:51.017Z,17.75
2022-07-26T22:58:20.935Z,17.60
2022-07-26T23:00:51.718Z,17.65
2022-07-26T23:03:21.790Z,17.60
2022-07-26T23:05:52.219Z,17.67
2022-07-26T23:08:47.091Z,17.58
2022-07-26T23:11:11.140Z,17.55
2022-07-26T23:13:42.886Z,17.41
2022-07-26T23:16:13.639Z,17.53
2022-07-26T23:18:42.974Z,17.49
2022-07-26T23:21:12.230Z,17.31
2022-07-26T23:23:41.468Z,17.31
2022-07-26T23:26:10.888Z,17.22
2022-07-26T23:28:40.138Z,17.42
2022-07-26T23:31:11.042Z,17.62
2022-07-26T23:33:51.414Z,17.52
2022-07-26T23:36:25.144Z,17.51
2022-07-26T23:38:55.272Z,17.51
2022-07-26T23:41:24.829Z,17.58
2022-07-26T23:43:54.681Z,17.56
2022-07-26T23:46:24.634Z,17.44
2022-07-26T23:48:56.388Z,17.61
2022-07-26T23:51:26.063Z,17.40
2022-07-26T23:53:55.366Z,17.38
2022-07-26T23:56:24.722Z,17.32
2022-07-26T23:58:54.004Z,17.31
